Time,TemperatureF,DewpointF,PressureIn,WindDirection,WindDirectionDegrees,WindSpeedMPH,WindSpeedGustMPH,Humidity,HourlyPrecipIn,Conditions,Clouds,dailyrainin,SolarRadiationWatts/m^2,SoftwareType,DateUTC
2013-06-15 00:00:00,52.9,26.0,30.07,NNE,29,5.0,-999.0,35,-99.99,,,0.00,0,weatherlink.com 1.10,2013-06-15 06:00:00,
2013-06-15 00:15:00,51.5,25.0,30.08,NE,38,8.0,-999.0,36,-99.99,,,0.00,0,weatherlink.com 1.10,2013-06-15 06:15:00,
2013-06-15 00:30:00,50.8,26.0,30.08,NE,36,4.0,-999.0,38,-99.99,,,0.00,0,weatherlink.com 1.10,2013-06-15 06:30:00,
2013-06-15 00:45:00,51.4,27.0,30.08,ENE,71,0.0,-999.0,39,-99.99,,,0.00,0,weatherlink.com 1.10,2013-06-15 06:45:00,
2013-06-15 01:00:00,51.8,28.0,30.09,ENE,58,0.0,-999.0,40,-99.99,,,0.00,0,weatherlink.com 1.10,2013-06-15 07:00:00,
2013-06-15 01:15:00,51.5,28.0,30.09,ENE,58,0.0,-999.0,41,-99.99,,,0.00,0,weatherlink.com 1.10,2013-06-15 07:15:00,
2013-06-15 01:30:00,52.3,27.0,30.09,ENE,64,0.0,-999.0,38,-99.99,,,0.00,0,weatherlink.com 1.10,2013-06-15 07:30:00,
2013-06-15 01:45:00,52.8,27.0,30.09,ENE,64,0.0,-999.0,37,-99.99,,,0.00,0,weatherlink.com 1.10,2013-06-15 07:45:00,
2013-06-15 02:00:00,52.8,28.0,30.09,ENE,64,0.0,-999.0,38,-99.99,,,0.00,0,weatherlink.com 1.10,2013-06-15 08:00:00,
2013-06-15 02:15:00,52.6,27.0,30.10,ENE,64,0.0,-999.0,38,-99.99,,,0.00,0,weatherlink.com 1.10,2013-06-15 08:15:00,
2013-06-15 02:30:00,52.2,28.0,30.10,ENE,64,0.0,-999.0,39,-99.99,,,0.00,0,weatherlink.com 1.10,2013-06-15 08:30:00,
2013-06-15 02:45:00,52.4,29.0,30.09,East,89,0.0,-999.0,40,-99.99,,,0.00,0,weatherlink.com 1.10,2013-06-15 08:45:00,
2013-06-15 03:00:00,51.4,28.0,30.09,East,89,0.0,-999.0,41,-99.99,,,0.00,0,weatherlink.com 1.10,2013-06-15 09:00:00,
2013-06-15 03:16:00,50.8,28.0,30.09,East,89,0.0,-999.0,42,-99.99,,,0.00,0,weatherlink.com 1.10,2013-06-15 09:16:00,
2013-06-15 03:31:00,50.6,32.0,30.09,East,89,0.0,-999.0,50,-99.99,,,0.00,0,weatherlink.com 1.10,2013-06-15 09:31:00,
2013-06-15 03:46:00,50.7,32.0,30.09,East,89,0.0,-999.0,49,-99.99,,,0.00,0,weatherlink.com 1.10,2013-06-15 09:46:00,
2013-06-15 04:01:00,50.7,32.0,30.09,East,89,0.0,-999.0,49,-99.99,,,0.00,0,weatherlink.com 1.10,2013-06-15 10:01:00,
2013-06-15 04:16:00,50.5,32.0,30.09,East,89,0.0,-999.0,50,-99.99,,,0.00,0,weatherlink.com 1.10,2013-06-15 10:16:00,
2013-06-15 04:31:00,50.2,31.0,30.09,East,89,0.0,-999.0,48,-99.99,,,0.00,0,weatherlink.com 1.10,2013-06-15 10:31:00,
2013-06-15 04:46:00,49.5,30.0,30.09,North,355,0.0,-999.0,47,-99.99,,,0.00,0,weatherlink.com 1.10,2013-06-15 10:46:00,
2013-06-15 05:01:00,48.8,30.0,30.09,North,350,0.0,-999.0,49,-99.99,,,0.00,0,weatherlink.com 1.10,2013-06-15 11:01:00,
2013-06-15 05:16:00,48.5,30.0,30.09,North,351,0.0,-999.0,50,-99.99,,,0.00,0,weatherlink.com 1.10,2013-06-15 11:16:00,
2013-06-15 05:31:00,46.2,31.0,30.10,North,355,2.0,-999.0,55,-99.99,,,0.00,0,weatherlink.com 1.10,2013-06-15 11:31:00,
2013-06-15 05:46:00,43.9,31.0,30.10,North,9,3.0,-999.0,62,-99.99,,,0.00,12,weatherlink.com 1.10,2013-06-15 11:46:00,
2013-06-15 06:01:00,44.1,31.0,30.10,North,10,0.0,-999.0,61,-99.99,,,0.00,25,weatherlink.com 1.10,2013-06-15 12:01:00,
2013-06-15 06:16:00,45.4,31.0,30.11,North,360,0.0,-999.0,58,-99.99,,,0.00,51,weatherlink.com 1.10,2013-06-15 12:16:00,
2013-06-15 06:31:00,46.2,32.0,30.11,North,9,0.0,-999.0,59,-99.99,,,0.00,90,weatherlink.com 1.10,2013-06-15 12:31:00,
2013-06-15 06:46:00,47.5,34.0,30.11,NNE,14,2.0,-999.0,59,-99.99,,,0.00,146,weatherlink.com 1.10,2013-06-15 12:46:00,
2013-06-15 07:01:00,48.8,34.0,30.11,NNW,329,3.0,-999.0,56,-99.99,,,0.00,195,weatherlink.com 1.10,2013-06-15 13:01:00,
2013-06-15 07:16:00,50.3,35.0,30.11,NNW,331,0.0,-999.0,56,-99.99,,,0.00,246,weatherlink.com 1.10,2013-06-15 13:16:00,
2013-06-15 07:31:00,51.9,36.0,30.11,NNW,342,0.0,-999.0,54,-99.99,,,0.00,292,weatherlink.com 1.10,2013-06-15 13:31:00,
2013-06-15 07:46:00,53.1,34.0,30.11,NNW,340,1.0,-999.0,49,-99.99,,,0.00,350,weatherlink.com 1.10,2013-06-15 13:46:00,
2013-06-15 08:01:00,53.9,34.0,30.11,NW,304,0.0,-999.0,47,-99.99,,,0.00,392,weatherlink.com 1.10,2013-06-15 14:01:00,
2013-06-15 08:16:00,55.0,34.0,30.11,NNW,346,0.0,-999.0,45,-99.99,,,0.00,434,weatherlink.com 1.10,2013-06-15 14:16:00,
2013-06-15 08:32:00,56.0,34.0,30.11,NE,45,0.0,-999.0,44,-99.99,,,0.00,464,weatherlink.com 1.10,2013-06-15 14:32:00,
2013-06-15 08:47:00,56.7,35.0,30.11,NE,41,3.0,-999.0,44,-99.99,,,0.00,496,weatherlink.com 1.10,2013-06-15 14:47:00,
2013-06-15 09:02:00,57.2,35.0,30.10,NNE,20,5.0,-999.0,44,-99.99,,,0.00,550,weatherlink.com 1.10,2013-06-15 15:02:00,
2013-06-15 09:17:00,58.1,34.0,30.10,NE,45,5.0,-999.0,41,-99.99,,,0.00,621,weatherlink.com 1.10,2013-06-15 15:17:00,
2013-06-15 09:32:00,58.6,35.0,30.10,North,355,0.0,-999.0,41,-99.99,,,0.00,615,weatherlink.com 1.10,2013-06-15 15:32:00,
2013-06-15 09:47:00,59.6,35.0,30.10,NE,36,1.0,-999.0,40,-99.99,,,0.00,677,weatherlink.com 1.10,2013-06-15 15:47:00,
2013-06-15 10:02:00,60.5,36.0,30.09,NE,36,6.0,-999.0,40,-99.99,,,0.00,744,weatherlink.com 1.10,2013-06-15 16:02:00,
2013-06-15 10:17:00,61.4,34.0,30.09,NNE,30,0.0,-999.0,36,-99.99,,,0.00,772,weatherlink.com 1.10,2013-06-15 16:17:00,
2013-06-15 10:32:00,63.0,35.0,30.08,NNE,20,4.0,-999.0,36,-99.99,,,0.00,717,weatherlink.com 1.10,2013-06-15 16:32:00,
2013-06-15 10:47:00,63.6,38.0,30.08,NW,323,0.0,-999.0,39,-99.99,,,0.00,842,weatherlink.com 1.10,2013-06-15 16:47:00,
2013-06-15 11:02:00,64.4,36.0,30.07,NE,44,8.0,-999.0,35,-99.99,,,0.00,870,weatherlink.com 1.10,2013-06-15 17:02:00,
2013-06-15 11:17:00,64.9,35.0,30.07,East,96,0.0,-999.0,33,-99.99,,,0.00,886,weatherlink.com 1.10,2013-06-15 17:17:00,
2013-06-15 11:32:00,65.7,35.0,30.07,South,178,0.0,-999.0,32,-99.99,,,0.00,918,weatherlink.com 1.10,2013-06-15 17:32:00,
2013-06-15 11:47:00,65.3,30.0,30.06,SSE,147,1.0,-999.0,27,-99.99,,,0.00,942,weatherlink.com 1.10,2013-06-15 17:47:00,
2013-06-15 12:02:00,65.2,24.0,30.06,SSE,168,5.0,-999.0,21,-99.99,,,0.00,958,weatherlink.com 1.10,2013-06-15 18:02:00,
2013-06-15 12:17:00,65.8,28.0,30.05,South,176,5.0,-999.0,24,-99.99,,,0.00,970,weatherlink.com 1.10,2013-06-15 18:17:00,
2013-06-15 12:32:00,66.7,29.0,30.05,SW,219,2.0,-999.0,24,-99.99,,,0.00,990,weatherlink.com 1.10,2013-06-15 18:32:00,
2013-06-15 12:48:00,68.3,27.0,30.04,SSW,213,0.0,-999.0,21,-99.99,,,0.00,997,weatherlink.com 1.10,2013-06-15 18:48:00,
2013-06-15 13:03:00,68.9,25.0,30.04,ESE,118,4.0,-999.0,19,-99.99,,,0.00,1002,weatherlink.com 1.10,2013-06-15 19:03:00,
2013-06-15 13:18:00,70.8,31.0,30.03,WSW,257,0.0,-999.0,23,-99.99,,,0.00,1030,weatherlink.com 1.10,2013-06-15 19:18:00,
2013-06-15 13:33:00,71.1,30.0,30.03,West,260,0.0,-999.0,22,-99.99,,,0.00,1013,weatherlink.com 1.10,2013-06-15 19:33:00,
2013-06-15 13:48:00,71.3,27.0,30.02,East,79,0.0,-999.0,19,-99.99,,,0.00,932,weatherlink.com 1.10,2013-06-15 19:48:00,
2013-06-15 14:03:00,72.5,31.0,30.01,WNW,294,8.0,-999.0,22,-99.99,,,0.00,1067,weatherlink.com 1.10,2013-06-15 20:03:00,
2013-06-15 14:18:00,73.8,28.0,30.01,NW,311,0.0,-999.0,18,-99.99,,,0.00,847,weatherlink.com 1.10,2013-06-15 20:18:00,
2013-06-15 14:33:00,74.3,28.0,30.00,North,360,3.0,-999.0,18,-99.99,,,0.00,831,weatherlink.com 1.10,2013-06-15 20:33:00,
2013-06-15 14:48:00,74.7,27.0,30.00,NNW,330,3.0,-999.0,17,-99.99,,,0.00,615,weatherlink.com 1.10,2013-06-15 20:48:00,
2013-06-15 15:03:00,74.3,24.0,29.99,NE,40,0.0,-999.0,15,-99.99,,,0.00,594,weatherlink.com 1.10,2013-06-15 21:03:00,
2013-06-15 15:18:00,73.9,23.0,29.99,NNE,24,8.0,-999.0,15,-99.99,,,0.00,933,weatherlink.com 1.10,2013-06-15 21:18:00,
2013-06-15 15:33:00,75.2,24.0,29.98,NW,322,5.0,-999.0,15,-99.99,,,0.00,844,weatherlink.com 1.10,2013-06-15 21:33:00,
2013-06-15 15:48:00,76.2,25.0,29.98,NNW,336,2.0,-999.0,15,-99.99,,,0.00,833,weatherlink.com 1.10,2013-06-15 21:48:00,
2013-06-15 16:03:00,76.5,22.0,29.97,NE,47,7.0,-999.0,13,-99.99,,,0.00,805,weatherlink.com 1.10,2013-06-15 22:03:00,
2013-06-15 16:18:00,76.0,22.0,29.96,NE,47,2.0,-999.0,13,-99.99,,,0.00,902,weatherlink.com 1.10,2013-06-15 22:18:00,
2013-06-15 16:33:00,75.6,23.0,29.96,NNE,24,3.0,-999.0,14,-99.99,,,0.00,796,weatherlink.com 1.10,2013-06-15 22:33:00,
2013-06-15 16:48:00,75.9,23.0,29.96,ENE,71,1.0,-999.0,14,-99.99,,,0.00,626,weatherlink.com 1.10,2013-06-15 22:48:00,
2013-06-15 17:03:00,77.1,24.0,29.95,NE,46,1.0,-999.0,14,-99.99,,,0.00,580,weatherlink.com 1.10,2013-06-15 23:03:00,
2013-06-15 17:19:00,78.0,25.0,29.95,WNW,302,0.0,-999.0,14,-99.99,,,0.00,712,weatherlink.com 1.10,2013-06-15 23:19:00,
2013-06-15 17:34:00,79.2,22.0,29.95,North,355,0.0,-999.0,12,-99.99,,,0.00,631,weatherlink.com 1.10,2013-06-15 23:34:00,
2013-06-15 17:49:00,78.9,20.0,29.94,NNE,29,3.0,-999.0,11,-99.99,,,0.00,559,weatherlink.com 1.10,2013-06-15 23:49:00,
2013-06-15 18:04:00,78.7,20.0,29.94,NNW,348,0.0,-999.0,11,-99.99,,,0.00,450,weatherlink.com 1.10,2013-06-16 00:04:00,
2013-06-15 18:19:00,78.7,22.0,29.93,NNW,348,0.0,-999.0,12,-99.99,,,0.00,471,weatherlink.com 1.10,2013-06-16 00:19:00,
2013-06-15 18:34:00,78.5,20.0,29.93,NE,53,0.0,-999.0,11,-99.99,,,0.00,269,weatherlink.com 1.10,2013-06-16 00:34:00,
2013-06-15 18:49:00,78.9,22.0,29.93,NNW,347,0.0,-999.0,12,-99.99,,,0.00,348,weatherlink.com 1.10,2013-06-16 00:49:00,
2013-06-15 19:04:00,78.6,22.0,29.93,NNW,348,0.0,-999.0,12,-99.99,,,0.00,88,weatherlink.com 1.10,2013-06-16 01:04:00,
2013-06-15 19:19:00,77.5,23.0,29.93,ENE,61,0.0,-999.0,13,-99.99,,,0.00,39,weatherlink.com 1.10,2013-06-16 01:19:00,
2013-06-15 19:34:00,76.7,22.0,29.93,East,79,1.0,-999.0,13,-99.99,,,0.00,37,weatherlink.com 1.10,2013-06-16 01:34:00,
2013-06-15 19:49:00,76.1,22.0,29.93,ENE,75,3.0,-999.0,13,-99.99,,,0.00,30,weatherlink.com 1.10,2013-06-16 01:49:00,
2013-06-15 20:04:00,75.7,21.0,29.93,ENE,70,3.0,-999.0,13,-99.99,,,0.00,40,weatherlink.com 1.10,2013-06-16 02:04:00,
2013-06-15 20:19:00,75.1,23.0,29.93,ESE,109,4.0,-999.0,14,-99.99,,,0.00,37,weatherlink.com 1.10,2013-06-16 02:19:00,
2013-06-15 20:34:00,74.2,20.0,29.94,ESE,107,0.0,-999.0,13,-99.99,,,0.00,16,weatherlink.com 1.10,2013-06-16 02:34:00,
2013-06-15 20:49:00,73.5,21.0,29.94,East,101,0.0,-999.0,14,-99.99,,,0.00,7,weatherlink.com 1.10,2013-06-16 02:49:00,
2013-06-15 21:04:00,72.6,19.0,29.95,East,101,1.0,-999.0,13,-99.99,,,0.00,0,weatherlink.com 1.10,2013-06-16 03:04:00,
2013-06-15 21:19:00,72.3,19.0,29.95,East,101,0.0,-999.0,13,-99.99,,,0.00,0,weatherlink.com 1.10,2013-06-16 03:19:00,
2013-06-15 21:34:00,72.2,20.0,29.95,East,101,0.0,-999.0,14,-99.99,,,0.00,0,weatherlink.com 1.10,2013-06-16 03:34:00,
2013-06-15 21:49:00,72.3,20.0,29.96,East,101,0.0,-999.0,14,-99.99,,,0.00,0,weatherlink.com 1.10,2013-06-16 03:49:00,
2013-06-15 22:04:00,72.0,22.0,29.97,WNW,290,4.0,-999.0,15,-99.99,,,0.00,0,weatherlink.com 1.10,2013-06-16 04:04:00,
2013-06-15 22:19:00,69.3,26.0,29.97,NNW,331,3.0,-999.0,20,-99.99,,,0.00,0,weatherlink.com 1.10,2013-06-16 04:19:00,
2013-06-15 22:34:00,65.7,27.0,29.98,NNW,341,0.0,-999.0,23,-99.99,,,0.00,0,weatherlink.com 1.10,2013-06-16 04:34:00,
2013-06-15 22:49:00,64.5,26.0,29.98,NNW,341,0.0,-999.0,23,-99.99,,,0.00,0,weatherlink.com 1.10,2013-06-16 04:49:00,
2013-06-15 23:04:00,64.2,23.0,29.98,NW,306,0.0,-999.0,21,-99.99,,,0.00,0,weatherlink.com 1.10,2013-06-16 05:04:00,
2013-06-15 23:19:00,65.6,22.0,29.98,NNW,329,0.0,-999.0,19,-99.99,,,0.00,0,weatherlink.com 1.10,2013-06-16 05:19:00,
2013-06-15 23:34:00,64.1,23.0,29.98,NNW,346,0.0,-999.0,21,-99.99,,,0.00,0,weatherlink.com 1.10,2013-06-16 05:34:00,
2013-06-15 23:49:00,64.4,23.0,29.98,NNW,335,0.0,-999.0,21,-99.99,,,0.00,0,weatherlink.com 1.10,2013-06-16 05:49:00,